sensor_id;sensor_type;location;lat;lon;timestamp;pressure;altitude;pressure_sealevel;temperature;humidity
40502;BME280;29631;49.168;9.848;2023-04-07T00:01:47;96656.53;;;14.00;61.05
40502;BME280;29631;49.168;9.848;2023-04-07T00:04:13;96672.72;;;14.10;60.69
40502;BME280;29631;49.168;9.848;2023-04-07T00:06:38;96669.63;;;13.95;60.86
40502;BME280;29631;49.168;9.848;2023-04-07T00:09:05;96674.13;;;13.94;61.20
40502;BME280;29631;49.168;9.848;2023-04-07T00:11:31;96666.47;;;13.86;62.02
40502;BME280;29631;49.168;9.848;2023-04-07T00:13:56;96667.63;;;13.79;61.90
40502;BME280;29631;49.168;9.848;2023-04-07T00:16:22;96656.78;;;13.80;62.09
40502;BME280;29631;49.168;9.848;2023-04-07T00:18:48;96655.41;;;13.78;62.06
40502;BME280;29631;49.168;9.848;2023-04-07T00:21:14;96646.72;;;13.71;62.49
40502;BME280;29631;49.168;9.848;2023-04-07T00:23:39;96671.78;;;13.86;62.31
40502;BME280;29631;49.168;9.848;2023-04-07T00:26:05;96670.63;;;13.82;63.00
40502;BME280;29631;49.168;9.848;2023-04-07T00:28:31;96645.22;;;13.75;62.89
40502;BME280;29631;49.168;9.848;2023-04-07T00:30:57;96656.41;;;13.77;62.84
40502;BME280;29631;49.168;9.848;2023-04-07T00:33:22;96618.06;;;13.50;63.45
40502;BME280;29631;49.168;9.848;2023-04-07T00:35:48;96619.91;;;13.50;63.53
40502;BME280;29631;49.168;9.848;2023-04-07T00:38:14;96656.47;;;13.59;63.62
40502;BME280;29631;49.168;9.848;2023-04-07T00:40:39;96647.94;;;13.39;63.66
40502;BME280;29631;49.168;9.848;2023-04-07T00:43:05;96604.75;;;13.09;63.79
40502;BME280;29631;49.168;9.848;2023-04-07T00:45:31;96629.88;;;13.18;64.20
40502;BME280;29631;49.168;9.848;2023-04-07T00:47:58;96643.56;;;13.15;64.83
40502;BME280;29631;49.168;9.848;2023-04-07T00:50:24;96619.66;;;13.04;64.30
40502;BME280;29631;49.168;9.848;2023-04-07T00:52:50;96631.13;;;12.98;64.57
40502;BME280;29631;49.168;9.848;2023-04-07T00:55:16;96641.72;;;12.98;64.94
40502;BME280;29631;49.168;9.848;2023-04-07T00:57:42;96609.38;;;12.72;64.80
40502;BME280;29631;49.168;9.848;2023-04-07T01:00:08;96629.09;;;12.76;65.21
40502;BME280;29631;49.168;9.848;2023-04-07T01:02:41;96642.53;;;12.74;66.02
40502;BME280;29631;49.168;9.848;2023-04-07T01:05:29;96624.66;;;12.52;65.80
40502;BME280;29631;49.168;9.848;2023-04-07T01:11:07;96624.09;;;12.43;65.74
40502;BME280;29631;49.168;9.848;2023-04-07T01:13:45;96623.72;;;12.40;66.65
40502;BME280;29631;49.168;9.848;2023-04-07T01:17:02;96601.28;;;12.25;65.72
40502;BME280;29631;49.168;9.848;2023-04-07T01:19:47;96638.34;;;12.42;66.03
40502;BME280;29631;49.168;9.848;2023-04-07T01:22:25;96612.50;;;12.20;66.72
40502;BME280;29631;49.168;9.848;2023-04-07T01:25:22;96619.25;;;12.16;67.36
40502;BME280;29631;49.168;9.848;2023-04-07T01:30:48;96612.19;;;12.10;66.85
40502;BME280;29631;49.168;9.848;2023-04-07T01:33:16;96613.03;;;12.04;67.20
40502;BME280;29631;49.168;9.848;2023-04-07T01:35:43;96574.63;;;11.77;67.12
40502;BME280;29631;49.168;9.848;2023-04-07T01:38:10;96589.63;;;11.83;67.18
40502;BME280;29631;49.168;9.848;2023-04-07T01:40:38;96594.47;;;11.86;67.23
40502;BME280;29631;49.168;9.848;2023-04-07T01:43:05;96585.25;;;11.95;67.46
40502;BME280;29631;49.168;9.848;2023-04-07T01:45:33;96585.84;;;11.97;67.02
40502;BME280;29631;49.168;9.848;2023-04-07T01:48:00;96590.88;;;12.05;67.95
40502;BME280;29631;49.168;9.848;2023-04-07T01:50:26;96608.13;;;12.08;67.68
40502;BME280;29631;49.168;9.848;2023-04-07T01:52:53;96587.03;;;12.01;67.95
40502;BME280;29631;49.168;9.848;2023-04-07T01:55:20;96589.41;;;12.09;67.67
40502;BME280;29631;49.168;9.848;2023-04-07T01:57:47;96580.31;;;12.05;67.93
40502;BME280;29631;49.168;9.848;2023-04-07T02:00:13;96575.19;;;12.10;67.91
40502;BME280;29631;49.168;9.848;2023-04-07T02:02:44;96587.75;;;12.15;68.19
40502;BME280;29631;49.168;9.848;2023-04-07T02:05:16;96589.91;;;12.24;68.33
40502;BME280;29631;49.168;9.848;2023-04-07T02:07:58;96574.69;;;12.20;68.91
40502;BME280;29631;49.168;9.848;2023-04-07T02:10:27;96546.34;;;12.09;68.12
40502;BME280;29631;49.168;9.848;2023-04-07T02:12:55;96582.88;;;12.36;68.58
40502;BME280;29631;49.168;9.848;2023-04-07T02:15:22;96565.84;;;12.32;68.16
40502;BME280;29631;49.168;9.848;2023-04-07T02:17:52;96550.03;;;12.26;69.08
40502;BME280;29631;49.168;9.848;2023-04-07T02:20:19;96551.03;;;12.31;68.55
40502;BME280;29631;49.168;9.848;2023-04-07T02:22:46;96571.16;;;12.50;68.90
40502;BME280;29631;49.168;9.848;2023-04-07T02:25:29;96551.91;;;12.43;69.29
40502;BME280;29631;49.168;9.848;2023-04-07T02:27:57;96562.63;;;12.48;69.19
40502;BME280;29631;49.168;9.848;2023-04-07T02:30:24;96536.69;;;12.38;68.77
40502;BME280;29631;49.168;9.848;2023-04-07T02:32:50;96548.63;;;12.47;69.37
40502;BME280;29631;49.168;9.848;2023-04-07T02:35:16;96534.66;;;12.40;68.65
40502;BME280;29631;49.168;9.848;2023-04-07T02:37:44;96541.47;;;12.48;68.42
40502;BME280;29631;49.168;9.848;2023-04-07T02:40:10;96551.19;;;12.54;69.96
40502;BME280;29631;49.168;9.848;2023-04-07T02:42:36;96529.38;;;12.40;69.23
40502;BME280;29631;49.168;9.848;2023-04-07T02:45:03;96508.59;;;12.26;68.95
40502;BME280;29631;49.168;9.848;2023-04-07T02:47:29;96504.88;;;12.27;69.36
40502;BME280;29631;49.168;9.848;2023-04-07T02:49:55;96510.78;;;12.29;69.11
40502;BME280;29631;49.168;9.848;2023-04-07T02:52:21;96516.19;;;12.34;69.58
40502;BME280;29631;49.168;9.848;2023-04-07T02:54:47;96534.56;;;12.47;69.35
40502;BME280;29631;49.168;9.848;2023-04-07T02:57:12;96519.16;;;12.44;69.33
40502;BME280;29631;49.168;9.848;2023-04-07T02:59:39;96515.19;;;12.35;69.35
40502;BME280;29631;49.168;9.848;2023-04-07T03:02:04;96518.78;;;12.40;69.36
40502;BME280;29631;49.168;9.848;2023-04-07T03:04:30;96507.84;;;12.37;70.25
40502;BME280;29631;49.168;9.848;2023-04-07T03:06:56;96516.72;;;12.42;69.90
40502;BME280;29631;49.168;9.848;2023-04-07T03:09:22;96504.13;;;12.20;69.60
40502;BME280;29631;49.168;9.848;2023-04-07T03:11:48;96520.19;;;12.43;70.21
40502;BME280;29631;49.168;9.848;2023-04-07T03:14:14;96517.78;;;12.41;70.17
40502;BME280;29631;49.168;9.848;2023-04-07T03:16:41;96526.06;;;12.45;69.98
40502;BME280;29631;49.168;9.848;2023-04-07T03:19:08;96512.69;;;12.40;69.94
40502;BME280;29631;49.168;9.848;2023-04-07T03:21:36;96492.50;;;12.28;69.86
40502;BME280;29631;49.168;9.848;2023-04-07T03:24:03;96502.09;;;12.40;70.39
40502;BME280;29631;49.168;9.848;2023-04-07T03:26:29;96479.94;;;12.23;70.20
40502;BME280;29631;49.168;9.848;2023-04-07T03:28:55;96481.56;;;12.24;70.77
40502;BME280;29631;49.168;9.848;2023-04-07T03:31:21;96495.13;;;12.28;70.93
40502;BME280;29631;49.168;9.848;2023-04-07T03:33:49;96483.38;;;12.24;71.00
40502;BME280;29631;49.168;9.848;2023-04-07T03:36:15;96491.84;;;12.32;70.34
40502;BME280;29631;49.168;9.848;2023-04-07T03:38:42;96493.66;;;12.31;70.88
40502;BME280;29631;49.168;9.848;2023-04-07T03:41:08;96482.34;;;12.25;70.49
40502;BME280;29631;49.168;9.848;2023-04-07T03:43:33;96479.06;;;12.29;70.93
40502;BME280;29631;49.168;9.848;2023-04-07T03:46:00;96472.59;;;12.25;70.43
40502;BME280;29631;49.168;9.848;2023-04-07T03:48:26;96456.00;;;12.18;70.55
40502;BME280;29631;49.168;9.848;2023-04-07T03:50:51;96486.34;;;12.33;70.60
40502;BME280;29631;49.168;9.848;2023-04-07T03:53:17;96488.75;;;12.35;70.78
40502;BME280;29631;49.168;9.848;2023-04-07T03:55:44;96495.22;;;12.39;71.02
40502;BME280;29631;49.168;9.848;2023-04-07T03:58:10;96485.97;;;12.30;71.08
40502;BME280;29631;49.168;9.848;2023-04-07T04:00:36;96477.88;;;12.25;70.74
40502;BME280;29631;49.168;9.848;2023-04-07T04:03:02;96490.09;;;12.26;70.85
40502;BME280;29631;49.168;9.848;2023-04-07T04:05:28;96497.56;;;12.29;70.64
40502;BME280;29631;49.168;9.848;2023-04-07T04:07:54;96493.50;;;12.27;70.87
40502;BME280;29631;49.168;9.848;2023-04-07T04:10:20;96473.66;;;12.00;72.16
40502;BME280;29631;49.168;9.848;2023-04-07T04:12:47;96474.56;;;12.12;72.13
40502;BME280;29631;49.168;9.848;2023-04-07T04:15:14;96501.44;;;12.27;71.75
40502;BME280;29631;49.168;9.848;2023-04-07T04:17:40;96498.81;;;12.27;72.16
40502;BME280;29631;49.168;9.848;2023-04-07T04:20:07;96499.03;;;12.25;71.45
40502;BME280;29631;49.168;9.848;2023-04-07T04:22:34;96497.41;;;12.24;71.53
40502;BME280;29631;49.168;9.848;2023-04-07T04:25:00;96467.06;;;12.09;71.72
40502;BME280;29631;49.168;9.848;2023-04-07T04:27:26;96458.19;;;12.03;71.67
40502;BME280;29631;49.168;9.848;2023-04-07T04:29:52;96426.97;;;11.76;71.62
40502;BME280;29631;49.168;9.848;2023-04-07T04:32:19;96480.84;;;12.11;71.82
40502;BME280;29631;49.168;9.848;2023-04-07T04:34:45;96477.66;;;12.09;71.59
40502;BME280;29631;49.168;9.848;2023-04-07T04:37:11;96456.84;;;11.94;72.60
40502;BME280;29631;49.168;9.848;2023-04-07T04:39:36;96488.97;;;12.16;71.79
40502;BME280;29631;49.168;9.848;2023-04-07T04:42:04;96443.69;;;11.88;72.17
40502;BME280;29631;49.168;9.848;2023-04-07T04:44:30;96481.22;;;12.14;72.62
40502;BME280;29631;49.168;9.848;2023-04-07T04:46:55;96475.94;;;12.14;73.02
40502;BME280;29631;49.168;9.848;2023-04-07T04:49:21;96488.47;;;12.25;72.49
40502;BME280;29631;49.168;9.848;2023-04-07T04:51:47;96460.59;;;12.05;72.59
40502;BME280;29631;49.168;9.848;2023-04-07T04:54:13;96479.84;;;12.29;73.39
40502;BME280;29631;49.168;9.848;2023-04-07T04:56:39;96493.16;;;12.41;72.63
40502;BME280;29631;49.168;9.848;2023-04-07T04:59:05;96480.22;;;12.33;72.93
40502;BME280;29631;49.168;9.848;2023-04-07T05:01:31;96501.69;;;12.43;72.59
40502;BME280;29631;49.168;9.848;2023-04-07T05:03:57;96468.09;;;12.26;71.74
40502;BME280;29631;49.168;9.848;2023-04-07T05:06:22;96487.13;;;12.34;72.91
40502;BME280;29631;49.168;9.848;2023-04-07T05:08:48;96468.94;;;12.26;73.41
40502;BME280;29631;49.168;9.848;2023-04-07T05:11:15;96494.50;;;12.32;72.74
40502;BME280;29631;49.168;9.848;2023-04-07T05:13:41;96472.59;;;12.25;73.31
40502;BME280;29631;49.168;9.848;2023-04-07T05:16:07;96477.88;;;12.25;73.51
40502;BME280;29631;49.168;9.848;2023-04-07T05:18:32;96467.75;;;12.22;72.86
40502;BME280;29631;49.168;9.848;2023-04-07T05:20:58;96475.38;;;12.30;73.16
40502;BME280;29631;49.168;9.848;2023-04-07T05:23:24;96491.53;;;12.40;72.90
40502;BME280;29631;49.168;9.848;2023-04-07T05:25:49;96450.25;;;12.21;73.85
40502;BME280;29631;49.168;9.848;2023-04-07T05:28:15;96480.38;;;12.38;74.18
40502;BME280;29631;49.168;9.848;2023-04-07T05:30:41;96497.28;;;12.37;73.53
40502;BME280;29631;49.168;9.848;2023-04-07T05:33:07;96488.31;;;12.38;73.27
40502;BME280;29631;49.168;9.848;2023-04-07T05:35:33;96463.66;;;12.26;73.22
40502;BME280;29631;49.168;9.848;2023-04-07T05:37:58;96498.91;;;12.38;73.09
40502;BME280;29631;49.168;9.848;2023-04-07T05:40:24;96472.59;;;12.25;73.67
40502;BME280;29631;49.168;9.848;2023-04-07T05:42:50;96468.94;;;12.26;72.95
40502;BME280;29631;49.168;9.848;2023-04-07T05:45:16;96479.50;;;12.26;73.36
40502;BME280;29631;49.168;9.848;2023-04-07T05:47:42;96494.84;;;12.35;73.57
40502;BME280;29631;49.168;9.848;2023-04-07T05:50:08;96461.44;;;12.23;74.24
40502;BME280;29631;49.168;9.848;2023-04-07T05:52:34;96488.38;;;12.31;73.82
40502;BME280;29631;49.168;9.848;2023-04-07T05:55:00;96484.34;;;12.29;73.54
40502;BME280;29631;49.168;9.848;2023-04-07T05:57:27;96477.00;;;12.31;73.93
40502;BME280;29631;49.168;9.848;2023-04-07T05:59:52;96458.78;;;12.23;74.51
40502;BME280;29631;49.168;9.848;2023-04-07T06:02:18;96485.31;;;12.34;74.21
40502;BME280;29631;49.168;9.848;2023-04-07T06:04:44;96473.75;;;12.29;74.29
40502;BME280;29631;49.168;9.848;2023-04-07T06:07:10;96458.50;;;12.13;74.38
40502;BME280;29631;49.168;9.848;2023-04-07T06:09:36;96493.16;;;12.41;74.16
40502;BME280;29631;49.168;9.848;2023-04-07T06:12:02;96482.66;;;12.34;74.10
40502;BME280;29631;49.168;9.848;2023-04-07T06:14:29;96492.78;;;12.37;74.96
40502;BME280;29631;49.168;9.848;2023-04-07T06:16:55;96440.94;;;12.01;74.88
40502;BME280;29631;49.168;9.848;2023-04-07T06:19:21;96476.78;;;12.32;74.85
40502;BME280;29631;49.168;9.848;2023-04-07T06:21:47;96483.03;;;12.38;75.13
40502;BME280;29631;49.168;9.848;2023-04-07T06:24:12;96456.78;;;12.19;74.23
40502;BME280;29631;49.168;9.848;2023-04-07T06:26:39;96475.16;;;12.31;74.77
40502;BME280;29631;49.168;9.848;2023-04-07T06:29:05;96465.47;;;12.26;74.81
40502;BME280;29631;49.168;9.848;2023-04-07T06:31:31;96483.03;;;12.38;74.57
40502;BME280;29631;49.168;9.848;2023-04-07T06:33:57;96484.06;;;12.37;74.83
40502;BME280;29631;49.168;9.848;2023-04-07T06:36:23;96487.88;;;12.41;74.54
40502;BME280;29631;49.168;9.848;2023-04-07T06:38:49;96489.47;;;12.42;76.06
40502;BME280;29631;49.168;9.848;2023-04-07T06:41:15;96466.84;;;12.28;75.54
40502;BME280;29631;49.168;9.848;2023-04-07T06:43:46;96466.84;;;12.28;75.43
40502;BME280;29631;49.168;9.848;2023-04-07T06:46:11;96482.16;;;12.44;75.42
40502;BME280;29631;49.168;9.848;2023-04-07T06:48:37;96472.47;;;12.38;75.15
40502;BME280;29631;49.168;9.848;2023-04-07T06:51:03;96480.06;;;12.46;75.64
40502;BME280;29631;49.168;9.848;2023-04-07T06:53:29;96462.31;;;12.35;75.58
40502;BME280;29631;49.168;9.848;2023-04-07T06:56:08;96476.56;;;12.34;75.44
40502;BME280;29631;49.168;9.848;2023-04-07T06:58:35;96494.63;;;12.37;74.96
40502;BME280;29631;49.168;9.848;2023-04-07T07:01:02;96488.00;;;12.28;75.91
40502;BME280;29631;49.168;9.848;2023-04-07T07:03:29;96482.44;;;12.18;76.35
40502;BME280;29631;49.168;9.848;2023-04-07T07:05:59;96477.78;;;12.14;76.43
40502;BME280;29631;49.168;9.848;2023-04-07T07:08:27;96419.41;;;11.79;76.43
40502;BME280;29631;49.168;9.848;2023-04-07T07:10:53;96484.63;;;12.21;76.01
40502;BME280;29631;49.168;9.848;2023-04-07T07:13:22;96481.59;;;12.18;76.55
40502;BME280;29631;49.168;9.848;2023-04-07T07:15:50;96482.34;;;12.25;76.51
40502;BME280;29631;49.168;9.848;2023-04-07T07:18:17;96458.50;;;12.13;76.32
40502;BME280;29631;49.168;9.848;2023-04-07T07:20:43;96473.63;;;12.24;77.22
40502;BME280;29631;49.168;9.848;2023-04-07T07:23:08;96500.50;;;12.39;76.79
40502;BME280;29631;49.168;9.848;2023-04-07T07:25:34;96490.41;;;12.29;76.20
40502;BME280;29631;49.168;9.848;2023-04-07T07:28:00;96488.97;;;12.33;76.79
40502;BME280;29631;49.168;9.848;2023-04-07T07:30:26;96495.56;;;12.42;77.62
40502;BME280;29631;49.168;9.848;2023-04-07T07:32:53;96470.53;;;12.27;76.42
40502;BME280;29631;49.168;9.848;2023-04-07T07:35:20;96481.31;;;12.43;77.47
40502;BME280;29631;49.168;9.848;2023-04-07T07:37:46;96473.03;;;12.40;77.05
40502;BME280;29631;49.168;9.848;2023-04-07T07:40:13;96481.13;;;12.45;77.40
40502;BME280;29631;49.168;9.848;2023-04-07T07:42:39;96427.63;;;12.07;76.32
40502;BME280;29631;49.168;9.848;2023-04-07T07:45:05;96503.44;;;12.49;77.10
40502;BME280;29631;49.168;9.848;2023-04-07T07:47:31;96459.22;;;12.20;77.79
40502;BME280;29631;49.168;9.848;2023-04-07T07:49:57;96482.66;;;12.34;77.30
40502;BME280;29631;49.168;9.848;2023-04-07T07:52:23;96480.91;;;12.29;77.52
40502;BME280;29631;49.168;9.848;2023-04-07T07:54:50;96490.50;;;12.41;78.00
40502;BME280;29631;49.168;9.848;2023-04-07T07:57:16;96500.00;;;12.48;77.33
40502;BME280;29631;49.168;9.848;2023-04-07T07:59:42;96471.25;;;12.34;77.53
40502;BME280;29631;49.168;9.848;2023-04-07T08:02:08;96481.41;;;12.37;77.80
40502;BME280;29631;49.168;9.848;2023-04-07T08:04:35;96478.78;;;12.37;77.48
40502;BME280;29631;49.168;9.848;2023-04-07T08:07:02;96495.09;;;12.52;78.10
40502;BME280;29631;49.168;9.848;2023-04-07T08:09:28;96511.22;;;12.62;77.49
40502;BME280;29631;49.168;9.848;2023-04-07T08:11:54;96487.16;;;12.52;77.76
40502;BME280;29631;49.168;9.848;2023-04-07T08:14:20;96490.97;;;12.56;78.43
40502;BME280;29631;49.168;9.848;2023-04-07T08:16:45;96493.16;;;12.59;77.93
40502;BME280;29631;49.168;9.848;2023-04-07T08:19:11;96497.72;;;12.70;78.09
40502;BME280;29631;49.168;9.848;2023-04-07T08:21:38;96501.75;;;12.72;77.75
40502;BME280;29631;49.168;9.848;2023-04-07T08:24:05;96506.38;;;12.77;78.40
40502;BME280;29631;49.168;9.848;2023-04-07T08:26:31;96481.13;;;12.63;78.01
40502;BME280;29631;49.168;9.848;2023-04-07T08:28:56;96480.66;;;12.66;78.99
40502;BME280;29631;49.168;9.848;2023-04-07T08:31:23;96506.53;;;12.82;78.66
40502;BME280;29631;49.168;9.848;2023-04-07T08:33:49;96496.38;;;12.79;78.22
40502;BME280;29631;49.168;9.848;2023-04-07T08:36:19;96506.03;;;12.91;78.33
40502;BME280;29631;49.168;9.848;2023-04-07T08:38:45;96511.94;;;13.04;79.10
40502;BME280;29631;49.168;9.848;2023-04-07T08:41:15;96486.25;;;12.94;78.60
40502;BME280;29631;49.168;9.848;2023-04-07T08:43:42;96518.09;;;13.16;78.83
40502;BME280;29631;49.168;9.848;2023-04-07T08:46:09;96488.13;;;13.04;78.63
40502;BME280;29631;49.168;9.848;2023-04-07T08:48:37;96509.13;;;13.17;79.42
40502;BME280;29631;49.168;9.848;2023-04-07T08:51:07;96506.41;;;13.24;79.66
40502;BME280;29631;49.168;9.848;2023-04-07T08:53:48;96519.69;;;13.35;79.75
40502;BME280;29631;49.168;9.848;2023-04-07T08:56:18;96505.03;;;13.33;79.77
40502;BME280;29631;49.168;9.848;2023-04-07T08:58:47;96506.56;;;13.40;79.24
40502;BME280;29631;49.168;9.848;2023-04-07T09:01:14;96519.50;;;13.48;79.33
40502;BME280;29631;49.168;9.848;2023-04-07T09:03:44;96522.72;;;13.50;79.58
40502;BME280;29631;49.168;9.848;2023-04-07T09:06:10;96491.59;;;13.34;79.42
40502;BME280;29631;49.168;9.848;2023-04-07T09:08:36;96500.81;;;13.43;79.75
40502;BME280;29631;49.168;9.848;2023-04-07T09:11:02;96527.38;;;13.66;79.16
40502;BME280;29631;49.168;9.848;2023-04-07T09:13:28;96506.16;;;13.55;79.42
40502;BME280;29631;49.168;9.848;2023-04-07T09:15:56;96519.56;;;13.71;80.26
40502;BME280;29631;49.168;9.848;2023-04-07T09:18:22;96530.84;;;13.78;79.80
40502;BME280;29631;49.168;9.848;2023-04-07T09:20:59;96535.25;;;13.84;79.87
40502;BME280;29631;49.168;9.848;2023-04-07T09:25:56;96514.97;;;13.78;79.50
40502;BME280;29631;49.168;9.848;2023-04-07T09:28:25;96517.13;;;13.81;79.69
40502;BME280;29631;49.168;9.848;2023-04-07T09:30:54;96525.78;;;13.88;80.45
40502;BME280;29631;49.168;9.848;2023-04-07T09:33:29;96523.63;;;13.85;80.75
40502;BME280;29631;49.168;9.848;2023-04-07T09:35:55;96509.19;;;13.81;80.05
40502;BME280;29631;49.168;9.848;2023-04-07T09:38:21;96509.88;;;13.88;80.62
40502;BME280;29631;49.168;9.848;2023-04-07T09:40:47;96517.28;;;13.86;80.12
40502;BME280;29631;49.168;9.848;2023-04-07T09:43:16;96515.44;;;13.98;80.90
40502;BME280;29631;49.168;9.848;2023-04-07T09:45:43;96524.31;;;14.03;80.29
40502;BME280;29631;49.168;9.848;2023-04-07T09:48:19;96523.53;;;14.03;80.13
40502;BME280;29631;49.168;9.848;2023-04-07T09:50:45;96511.19;;;13.97;80.33
40502;BME280;29631;49.168;9.848;2023-04-07T09:53:14;96530.78;;;14.07;80.50
40502;BME280;29631;49.168;9.848;2023-04-07T09:55:41;96520.41;;;14.06;80.62
40502;BME280;29631;49.168;9.848;2023-04-07T09:58:11;96525.59;;;14.01;80.63
40502;BME280;29631;49.168;9.848;2023-04-07T10:00:37;96512.22;;;13.96;80.59
40502;BME280;29631;49.168;9.848;2023-04-07T10:03:04;96535.25;;;14.07;80.61
40502;BME280;29631;49.168;9.848;2023-04-07T10:05:32;96471.88;;;13.71;81.03
40502;BME280;29631;49.168;9.848;2023-04-07T10:08:00;96543.28;;;14.18;81.06
40502;BME280;29631;49.168;9.848;2023-04-07T10:10:27;96524.94;;;14.17;81.18
40502;BME280;29631;49.168;9.848;2023-04-07T10:12:56;96537.28;;;14.23;81.38
40502;BME280;29631;49.168;9.848;2023-04-07T10:15:23;96528.88;;;14.26;80.42
40502;BME280;29631;49.168;9.848;2023-04-07T10:17:49;96526.22;;;14.37;80.97
40502;BME280;29631;49.168;9.848;2023-04-07T10:20:17;96516.97;;;14.40;80.46
40502;BME280;29631;49.168;9.848;2023-04-07T10:22:47;96539.22;;;14.61;80.83
40502;BME280;29631;49.168;9.848;2023-04-07T10:25:18;96539.91;;;14.68;80.69
40502;BME280;29631;49.168;9.848;2023-04-07T10:28:02;96537.84;;;14.70;80.29
40502;BME280;29631;49.168;9.848;2023-04-07T10:30:31;96514.31;;;14.62;80.93
40502;BME280;29631;49.168;9.848;2023-04-07T10:32:58;96499.88;;;14.58;80.35
40502;BME280;29631;49.168;9.848;2023-04-07T10:35:24;96531.13;;;14.79;80.39
40502;BME280;29631;49.168;9.848;2023-04-07T10:38:10;96538.25;;;14.90;80.36
40502;BME280;29631;49.168;9.848;2023-04-07T10:40:38;96514.16;;;14.80;80.21
40502;BME280;29631;49.168;9.848;2023-04-07T10:43:06;96541.81;;;15.07;80.74
40502;BME280;29631;49.168;9.848;2023-04-07T10:48:18;96539.47;;;15.22;80.72
40502;BME280;29631;49.168;9.848;2023-04-07T10:53:36;96545.31;;;15.35;80.36
40502;BME280;29631;49.168;9.848;2023-04-07T10:56:03;96532.16;;;15.29;79.94
40502;BME280;29631;49.168;9.848;2023-04-07T10:58:30;96547.41;;;15.33;80.76
40502;BME280;29631;49.168;9.848;2023-04-07T11:03:26;96523.66;;;15.27;80.20
40502;BME280;29631;49.168;9.848;2023-04-07T11:06:03;96543.78;;;15.39;80.20
40502;BME280;29631;49.168;9.848;2023-04-07T11:11:02;96527.34;;;15.26;80.57
40502;BME280;29631;49.168;9.848;2023-04-07T11:13:43;96546.59;;;15.33;80.02
40502;BME280;29631;49.168;9.848;2023-04-07T11:16:11;96496.00;;;15.00;80.07
40502;BME280;29631;49.168;9.848;2023-04-07T11:18:38;96530.66;;;15.22;80.10
40502;BME280;29631;49.168;9.848;2023-04-07T11:21:05;96525.34;;;15.22;80.35
40502;BME280;29631;49.168;9.848;2023-04-07T11:23:43;96512.91;;;15.22;80.04
40502;BME280;29631;49.168;9.848;2023-04-07T11:26:13;96538.81;;;15.43;79.61
40502;BME280;29631;49.168;9.848;2023-04-07T11:28:47;96543.78;;;15.39;80.37
40502;BME280;29631;49.168;9.848;2023-04-07T11:31:28;96555.91;;;15.47;80.05
40502;BME280;29631;49.168;9.848;2023-04-07T11:34:03;96552.31;;;15.53;79.75
40502;BME280;29631;49.168;9.848;2023-04-07T11:36:38;96556.09;;;15.57;80.25
40502;BME280;29631;49.168;9.848;2023-04-07T11:39:05;96549.16;;;15.56;79.35
40502;BME280;29631;49.168;9.848;2023-04-07T11:41:47;96539.09;;;15.58;79.67
40502;BME280;29631;49.168;9.848;2023-04-07T11:44:13;96553.13;;;15.70;80.04
40502;BME280;29631;49.168;9.848;2023-04-07T11:47:08;96551.53;;;15.69;79.51
40502;BME280;29631;49.168;9.848;2023-04-07T11:49:34;96546.88;;;15.76;79.57
40502;BME280;29631;49.168;9.848;2023-04-07T11:52:08;96542.59;;;15.75;79.76
40502;BME280;29631;49.168;9.848;2023-04-07T11:54:42;96539.53;;;15.83;80.22
40502;BME280;29631;49.168;9.848;2023-04-07T11:57:09;96477.66;;;15.54;79.24
40502;BME280;29631;49.168;9.848;2023-04-07T11:59:37;96531.50;;;15.94;79.95
40502;BME280;29631;49.168;9.848;2023-04-07T12:02:03;96566.75;;;16.17;80.42
40502;BME280;29631;49.168;9.848;2023-04-07T12:04:29;96544.41;;;16.18;80.68
40502;BME280;29631;49.168;9.848;2023-04-07T12:07:09;96540.38;;;16.32;80.51
40502;BME280;29631;49.168;9.848;2023-04-07T12:09:36;96522.91;;;16.36;80.36
40502;BME280;29631;49.168;9.848;2023-04-07T12:12:04;96529.72;;;16.49;80.24
40502;BME280;29631;49.168;9.848;2023-04-07T12:14:33;96543.00;;;16.65;80.14
40502;BME280;29631;49.168;9.848;2023-04-07T12:17:00;96539.22;;;16.77;79.68
40502;BME280;29631;49.168;9.848;2023-04-07T12:19:29;96518.69;;;16.78;80.09
40502;BME280;29631;49.168;9.848;2023-04-07T12:21:58;96523.66;;;16.91;79.72
40502;BME280;29631;49.168;9.848;2023-04-07T12:24:23;96538.22;;;17.05;79.38
40502;BME280;29631;49.168;9.848;2023-04-07T12:26:49;96502.13;;;16.92;78.88
40502;BME280;29631;49.168;9.848;2023-04-07T12:29:17;96526.16;;;17.19;79.57
40502;BME280;29631;49.168;9.848;2023-04-07T12:31:44;96526.75;;;17.26;78.91
40502;BME280;29631;49.168;9.848;2023-04-07T12:34:10;96518.06;;;17.30;78.79
40502;BME280;29631;49.168;9.848;2023-04-07T12:36:36;96544.13;;;17.49;78.67
40502;BME280;29631;49.168;9.848;2023-04-07T12:39:02;96538.31;;;17.52;78.48
40502;BME280;29631;49.168;9.848;2023-04-07T12:41:27;96538.66;;;17.61;78.87
40502;BME280;29631;49.168;9.848;2023-04-07T12:43:53;96546.44;;;17.67;79.11
40502;BME280;29631;49.168;9.848;2023-04-07T12:46:19;96533.66;;;17.69;78.81
40502;BME280;29631;49.168;9.848;2023-04-07T12:48:46;96524.13;;;17.73;79.11
40502;BME280;29631;49.168;9.848;2023-04-07T12:51:12;96531.94;;;17.85;79.34
40502;BME280;29631;49.168;9.848;2023-04-07T12:53:38;96523.69;;;17.86;78.38
40502;BME280;29631;49.168;9.848;2023-04-07T12:56:04;96537.88;;;17.92;78.48
40502;BME280;29631;49.168;9.848;2023-04-07T12:58:30;96525.56;;;17.86;78.00
40502;BME280;29631;49.168;9.848;2023-04-07T13:00:55;96520.78;;;17.88;77.25
40502;BME280;29631;49.168;9.848;2023-04-07T13:03:22;96555.84;;;18.01;78.02
40502;BME280;29631;49.168;9.848;2023-04-07T13:05:48;96530.78;;;18.02;77.80
40502;BME280;29631;49.168;9.848;2023-04-07T13:08:14;96515.50;;;17.93;77.04
40502;BME280;29631;49.168;9.848;2023-04-07T13:10:40;96505.88;;;17.92;77.69
40502;BME280;29631;49.168;9.848;2023-04-07T13:13:06;96522.56;;;18.09;77.13
40502;BME280;29631;49.168;9.848;2023-04-07T13:15:31;96540.31;;;18.20;76.93
40502;BME280;29631;49.168;9.848;2023-04-07T13:17:57;96515.09;;;18.11;77.01
40502;BME280;29631;49.168;9.848;2023-04-07T13:20:23;96512.47;;;18.16;76.99
40502;BME280;29631;49.168;9.848;2023-04-07T13:22:53;96491.84;;;18.06;76.25